DW0805 Ramloese DK current weather conditions

sailwx.info

Wind from 086 at 5 knots gusting 8

Air temperature 17.8° C
Dewpoint 15.4° C

Last reported at 2016-May-29 20:55 UTC.
Time now 2016-May-29 21:06 UTC

Location: N 56°01' E 012°05'.
View on Google Maps.

See reports from other nearby stations

  
Tides and Currents Weather Stations Pressure Air Temp Water Temp Dewpoint Dewpoint Depression Visibility Wind Speed Wind Dir Waves Ship Positions
date/time (UTC)wind fromknots sea level pressurealtimeterstation pressurevisibilityair tempwater tempwave heightnotes
2016-May-29 20:55 086 5 gusting 8 17.8
2016-May-29 20:45 064 2 gusting 6 17.2
2016-May-29 20:35 067 0 gusting 1 17.2
2016-May-29 20:25 067 0 gusting 1 17.2
2016-May-29 20:05 067 0 gusting 2 17.2
2016-May-29 19:55 067 1 gusting 5 17.2
2016-May-29 19:45 068 1 gusting 5 17.2
2016-May-29 19:35 068 1 gusting 2 17.2
2016-May-29 19:25 068 2 gusting 6 17.8
2016-May-29 19:15 075 2 gusting 5 17.8
2016-May-29 19:05 098 2 gusting 4 17.8
2016-May-29 18:55 107 4 gusting 8 17.8
2016-May-29 18:45 037 5 gusting 11 17.8
2016-May-29 18:35 335 4 gusting 14 18.3
2016-May-29 18:25 038 11 gusting 15 20.0
2016-May-29 18:15 092 3 gusting 5 19.4
2016-May-29 18:05 050 1 gusting 4 20.0
2016-May-29 17:55 045 1 gusting 5 20.0
2016-May-29 17:45 039 1 gusting 4 20.0
2016-May-29 17:35 029 1 gusting 5 20.6
2016-May-29 17:15 040 2 gusting 5 20.6
2016-May-29 16:55 054 2 gusting 8 20.6
2016-May-29 16:45 031 3 gusting 8 20.6
2016-May-29 16:35 054 1 gusting 6 20.0
2016-May-29 16:25 043 1 gusting 6 20.0
2016-May-29 15:55 065 4 gusting 7 20.0
2016-May-29 15:45 044 3 gusting 10 20.0
2016-May-29 15:35 031 3 gusting 10 20.0
2016-May-29 15:15 043 4 gusting 8 20.6
2016-May-29 15:05 022 2 gusting 8 20.6
2016-May-29 14:45 053 2 gusting 8 21.7
2016-May-29 14:35 034 4 gusting 8 22.2
2016-May-29 14:05 046 5 gusting 8 21.7
2016-May-29 13:45 045 5 gusting 8 21.7
2016-May-29 12:55 033 4 gusting 8 22.2
2016-May-29 12:45 062 5 gusting 10 21.7
2016-May-29 12:25 033 3 gusting 10 23.3
2016-May-29 12:15 022 2 gusting 8 22.8
2016-May-29 11:45 032 3 gusting 10 22.8
2016-May-29 11:35 060 1 gusting 7 22.2
2016-May-29 11:25 047 3 gusting 10 22.8
2016-May-29 11:15 026 3 gusting 6 23.3
2016-May-29 10:55 045 5 gusting 10 22.8
2016-May-29 10:45 051 3 gusting 8 22.8
2016-May-29 10:35 065 4 gusting 7 21.7
2016-May-29 10:25 007 3 gusting 10 21.1
2016-May-29 10:15 033 4 gusting 10 21.7
2016-May-29 09:45 023 2 gusting 7 22.8
2016-May-29 09:35 064 3 gusting 10 21.7
2016-May-29 09:25 031 2 gusting 7 22.2
2016-May-29 09:05 049 1 gusting 6 21.7
2016-May-29 08:55 070 2 gusting 10 21.7
2016-May-29 08:35 062 4 gusting 7 21.7
2016-May-29 08:15 055 2 gusting 7 21.7
2016-May-29 08:05 060 2 gusting 7 20.6
2016-May-29 07:55 072 3 gusting 6 20.0
2016-May-29 07:45 070 1 gusting 6 20.0
2016-May-29 07:35 070 0 gusting 5 19.4
2016-May-29 07:05 084 1 gusting 6 19.4
2016-May-29 06:55 070 2 gusting 7 18.9
2016-May-29 06:45 087 1 gusting 7 18.9
2016-May-29 06:35 068 2 gusting 6 18.9
2016-May-29 05:55 062 3 gusting 7 17.2
2016-May-29 05:45 070 5 gusting 8 17.2
2016-May-29 05:35 059 3 gusting 6 17.2
2016-May-29 05:15 039 2 gusting 6 16.7
2016-May-29 05:05 068 3 gusting 6 16.1
2016-May-29 04:55 061 3 gusting 6 15.6
2016-May-29 04:45 051 4 gusting 7 15.6
2016-May-29 04:35 054 2 gusting 7 15.0
2016-May-29 04:25 039 2 gusting 7 14.4
2016-May-29 04:15 045 2 gusting 6 13.9
2016-May-29 04:05 044 1 gusting 5 13.9
2016-May-29 03:55 040 2 gusting 6 13.9
2016-May-29 03:45 050 1 gusting 6 13.3
2016-May-29 03:35 051 2 gusting 6 12.8
2016-May-29 03:15 057 1 gusting 6 12.8
2016-May-29 02:35 059 1 gusting 6 12.8
2016-May-29 02:25 071 2 gusting 5 12.8
2016-May-29 02:15 079 0 gusting 2 12.8
2016-May-29 02:05 085 0 gusting 1 12.2
2016-May-29 01:55 085 12.8
2016-May-29 01:35 087 1 gusting 2 12.8
2016-May-29 01:25 093 0 gusting 1 12.8
2016-May-29 01:15 093 12.8
2016-May-29 01:05 093 0 gusting 2 12.8
2016-May-29 00:55 093 12.8
2016-May-29 00:25 093 1 gusting 6 13.9
2016-May-28 23:45 071 0 gusting 1 13.3
2016-May-28 23:35 071 0 gusting 1 13.3
2016-May-28 23:25 071 0 gusting 1 13.3
2016-May-28 23:05 071 0 gusting 1 13.3
2016-May-28 22:35 067 1 gusting 2 13.9
2016-May-28 22:25 067 1 gusting 2 13.3
2016-May-28 22:15 067 1 gusting 2 13.9
2016-May-28 21:55 051 1 gusting 2 14.4
2016-May-28 21:45 051 1 gusting 2 14.4
2016-May-28 21:15 051 0 gusting 2 15.0
2016-May-28 21:05 051 1 gusting 2 15.0
2016-May-28 20:55 051 0 gusting 2 15.0
2016-May-28 20:45 051 1 gusting 2 15.0
2016-May-28 20:35 051 1 gusting 2 15.0
2016-May-28 20:25 051 1 gusting 2 15.6
2016-May-28 20:05 051 0 gusting 2 15.6
2016-May-28 19:55 051 1 gusting 2 15.6
2016-May-28 19:45 047 0 gusting 2 16.1
2016-May-28 19:35 044 1 gusting 4 16.1
2016-May-28 19:15 040 4 gusting 6 16.7
2016-May-28 18:55 034 2 gusting 6 16.7
2016-May-28 18:35 038 3 gusting 6 17.2
2016-May-28 18:15 041 4 gusting 8 17.2
2016-May-28 18:05 042 3 gusting 7 17.2
2016-May-28 17:35 048 2 gusting 7 18.3
2016-May-28 17:25 053 0 gusting 4 18.9
2016-May-28 17:15 049 1 gusting 7 18.9
2016-May-28 17:05 053 1 gusting 7 19.4
2016-May-28 16:55 058 4 gusting 7 19.4
2016-May-28 16:45 055 1 gusting 10 19.4
2016-May-28 16:35 064 2 gusting 8 20.0
2016-May-28 16:25 057 3 gusting 8 21.1
2016-May-28 16:15 028 4 gusting 10 21.1
2016-May-28 15:55 050 2 gusting 7 20.6
2016-May-28 15:45 067 3 gusting 7 20.0
2016-May-28 15:35 057 4 gusting 7 20.0
2016-May-28 15:25 061 2 gusting 6 20.6
2016-May-28 15:15 054 1 gusting 6 20.6
2016-May-28 15:05 068 1 gusting 5 20.6
2016-May-28 14:55 069 20.6
2016-May-28 14:35 099 0 gusting 6 21.7
2016-May-28 14:25 121 1 gusting 6 20.6
2016-May-28 14:05 058 3 gusting 10 20.6
2016-May-28 13:25 066 4 gusting 7 19.4
2016-May-28 13:15 057 4 gusting 8 20.0
2016-May-28 13:05 058 1 gusting 2 20.6
2016-May-28 12:55 046 2 gusting 8 20.6
2016-May-28 12:35 190 2 gusting 5 21.7
2016-May-28 12:25 184 3 gusting 7 22.2
2016-May-28 12:15 209 4 gusting 6 21.7
2016-May-28 12:05 195 3 gusting 6 21.7
2016-May-28 11:55 202 2 gusting 7 22.2
2016-May-28 11:45 210 2 gusting 7 22.8
2016-May-28 11:35 196 3 gusting 7 22.2
2016-May-28 11:05 196 3 gusting 6 21.7
2016-May-28 10:55 177 3 gusting 6 21.1
2016-May-28 10:45 191 2 gusting 6 20.6
2016-May-28 10:35 184 1 gusting 5 20.6
2016-May-28 10:25 196 2 gusting 6 20.6
2016-May-28 10:05 153 4 gusting 7 20.6
2016-May-28 09:55 178 4 gusting 7 20.6
2016-May-28 09:45 173 4 gusting 7 20.6
2016-May-28 09:15 188 2 gusting 6 20.6
2016-May-28 09:05 194 3 gusting 5 20.6
2016-May-28 08:45 194 2 gusting 6 20.0
2016-May-28 08:35 184 1 gusting 4 20.6
2016-May-28 08:25 182 1 gusting 5 20.0
2016-May-28 07:45 176 2 gusting 6 18.9
2016-May-28 07:35 173 2 gusting 4 18.9
2016-May-28 07:15 173 1 gusting 4 18.9
2016-May-28 07:05 172 3 gusting 6 17.8
2016-May-28 06:55 168 1 gusting 5 18.3
2016-May-28 06:35 164 1 gusting 4 17.2
2016-May-28 06:25 158 2 gusting 5 17.2
2016-May-28 06:15 139 1 gusting 5 16.7
2016-May-28 06:05 122 1 gusting 4 16.7
2016-May-28 05:55 119 0 gusting 2 17.2
2016-May-28 05:35 119 1 gusting 2 16.1
2016-May-28 05:25 119 0 gusting 2 15.6
2016-May-28 05:15 119 0 gusting 2 15.6
2016-May-28 05:05 117 0 gusting 2 15.0
2016-May-28 04:55 117 1 gusting 4 15.0
2016-May-28 04:45 063 0 gusting 2 14.4
2016-May-28 04:35 063 14.4
2016-May-28 04:15 062 13.3
2016-May-28 04:05 063 11.7
2016-May-28 03:45 062 11.1
2016-May-28 03:35 061 11.1
2016-May-28 03:25 062 11.1
2016-May-28 03:05 062 11.1
2016-May-28 02:35 061 0 gusting 2 11.7
2016-May-28 02:25 061 0 gusting 2 11.7
2016-May-28 02:05 059 1 gusting 2 11.7
2016-May-28 01:55 049 1 gusting 2 11.7
2016-May-28 01:45 046 1 gusting 4 11.1
2016-May-28 01:25 036 10.0
2016-May-28 01:15 036 0 gusting 2 10.0
2016-May-28 01:05 036 0 gusting 2 9.4
2016-May-28 00:55 036 0 gusting 1 8.9
2016-May-28 00:45 036 8.9
2016-May-28 00:35 036 8.9
2016-May-28 00:25 036 8.9
2016-May-28 00:15 036 9.4
2016-May-28 00:05 036 10.6
2016-May-27 23:55 036 0 gusting 2 11.1
2016-May-27 23:45 036 1 gusting 2 11.1
2016-May-27 23:35 036 1 gusting 2 11.1
2016-May-27 23:25 036 1 gusting 2 11.1
2016-May-27 23:15 036 1 gusting 2 11.1
2016-May-27 22:55 036 1 gusting 2 11.1
2016-May-27 22:35 035 0 gusting 2 11.1
2016-May-27 22:25 036 0 gusting 2 11.1
2016-May-27 22:15 035 1 gusting 2 11.1
2016-May-27 22:05 035 1 gusting 2 11.1
2016-May-27 21:55 035 0 gusting 2 11.1
2016-May-27 21:25 036 11.1
2016-May-27 21:05 035 11.1